Time;durP1;ratioP1;P1;durP2;ratioP2;P2;SDS_P1;SDS_P2;PMS_P1;PMS_P2;Temp;Humidity;BMP_temperature;BMP_pressure;BME280_temperature;BME280_humidity;BME280_pressure;Samples;Min_cycle;Max_cycle;Signal;HPM_P1;HPM_P2
2021/12/09 00:01:17;;;;;;;4.07;3.10;;;4.80;99.90;;;;;;5095186;28;20977;-57
2021/12/09 00:03:44;;;;;;;7.77;4.23;;;4.60;99.90;;;;;;5095467;28;20499;-57
2021/12/09 00:06:12;;;;;;;3.77;3.37;;;4.70;99.90;;;;;;5095093;28;20443;-57
2021/12/09 00:08:42;;;;;;;6.00;3.93;;;4.50;99.90;;;;;;5095172;28;20459;-58
2021/12/09 00:11:10;;;;;;;3.20;2.67;;;4.50;99.90;;;;;;5095241;28;20836;-58
2021/12/09 00:13:37;;;;;;;5.17;3.43;;;4.40;99.90;;;;;;5095044;28;20447;-58
2021/12/09 00:16:04;;;;;;;6.30;3.20;;;4.50;99.90;;;;;;5094981;28;20451;-57
2021/12/09 00:18:32;;;;;;;4.10;2.93;;;4.50;99.90;;;;;;5095311;28;20451;-57
2021/12/09 00:20:59;;;;;;;3.87;2.47;;;4.40;99.90;;;;;;5094477;28;21007;-57
2021/12/09 00:23:26;;;;;;;3.03;2.70;;;4.20;99.90;;;;;;5095065;28;20486;-57
2021/12/09 00:25:55;;;;;;;5.50;2.80;;;4.10;99.90;;;;;;5094768;28;20462;-58
2021/12/09 00:28:22;;;;;;;3.00;2.67;;;4.20;99.90;;;;;;5095019;28;20447;-57
2021/12/09 00:30:49;;;;;;;5.57;3.47;;;4.20;99.90;;;;;;5094918;28;20459;-57
2021/12/09 00:33:17;;;;;;;6.43;2.80;;;4.20;99.90;;;;;;5094587;28;20443;-56
2021/12/09 00:35:48;;;;;;;2.73;2.47;;;4.10;99.90;;;;;;5094571;28;20490;-57
2021/12/09 00:38:21;;;;;;;3.90;2.70;;;4.20;99.90;;;;;;5094526;28;20921;-57
2021/12/09 00:40:50;;;;;;;4.80;2.63;;;4.10;99.90;;;;;;5094677;28;20486;-57
2021/12/09 00:43:20;;;;;;;3.10;2.13;;;4.20;99.90;;;;;;5094928;28;20479;-57
2021/12/09 00:45:47;;;;;;;3.47;2.53;;;4.20;99.90;;;;;;5095174;28;20802;-57
2021/12/09 00:48:14;;;;;;;6.67;3.10;;;4.40;99.90;;;;;;5094320;28;20538;-57
2021/12/09 00:50:42;;;;;;;3.77;2.23;;;4.60;99.90;;;;;;5094058;28;20483;-57
2021/12/09 00:53:10;;;;;;;5.43;2.87;;;4.50;99.90;;;;;;5094247;28;20479;-57
2021/12/09 00:55:37;;;;;;;5.60;2.40;;;4.50;99.90;;;;;;5094531;28;20512;-57
2021/12/09 00:58:05;;;;;;;3.10;2.50;;;4.40;99.90;;;;;;5094497;28;20443;-57
2021/12/09 01:00:34;;;;;;;5.83;2.00;;;4.30;99.90;;;;;;5094266;28;20439;-58
2021/12/09 01:03:01;;;;;;;5.83;2.90;;;4.40;99.90;;;;;;5094325;28;20830;-58
2021/12/09 01:05:28;;;;;;;3.60;2.50;;;4.40;99.90;;;;;;5094114;28;20454;-57
2021/12/09 01:07:56;;;;;;;9.60;3.10;;;4.50;99.90;;;;;;5094133;28;20439;-57
2021/12/09 01:10:24;;;;;;;3.33;2.60;;;4.50;99.90;;;;;;5094238;28;20467;-57
2021/12/09 01:12:52;;;;;;;6.97;2.57;;;4.60;99.90;;;;;;5094682;28;20914;-57
2021/12/09 01:15:20;;;;;;;3.43;2.27;;;4.70;99.90;;;;;;5094704;28;20452;-58
2021/12/09 01:17:49;;;;;;;5.23;3.03;;;4.70;99.90;;;;;;5094166;28;20457;-57
2021/12/09 01:20:19;;;;;;;2.50;2.30;;;4.80;99.90;;;;;;5094000;28;20467;-57
2021/12/09 01:22:47;;;;;;;7.17;2.90;;;4.50;99.90;;;;;;5093635;28;20494;-57
2021/12/09 01:25:17;;;;;;;5.63;2.67;;;4.60;99.90;;;;;;5094782;28;20864;-57
2021/12/09 01:27:47;;;;;;;7.80;3.00;;;4.70;99.90;;;;;;5094010;28;20450;-57
2021/12/09 01:30:19;;;;;;;6.13;2.63;;;4.70;99.90;;;;;;5093859;28;20475;-58
2021/12/09 01:32:51;;;;;;;4.17;2.60;;;4.60;99.90;;;;;;5092906;28;20554;-57
2021/12/09 01:35:20;;;;;;;3.63;2.60;;;4.70;99.90;;;;;;5093904;28;20428;-57
2021/12/09 01:37:49;;;;;;;2.90;2.10;;;4.80;99.90;;;;;;5093839;28;20599;-58
2021/12/09 01:40:17;;;;;;;3.70;2.60;;;5.00;99.90;;;;;;5093522;28;20495;-57
2021/12/09 01:42:44;;;;;;;4.20;2.90;;;5.00;99.90;;;;;;5093948;28;20562;-57
2021/12/09 01:45:12;;;;;;;2.63;2.43;;;5.00;99.90;;;;;;5094325;28;20443;-57
2021/12/09 01:47:40;;;;;;;5.30;2.53;;;4.90;99.90;;;;;;5093695;28;20808;-58
2021/12/09 01:50:11;;;;;;;3.90;2.90;;;5.00;99.90;;;;;;5093236;28;20552;-57
2021/12/09 01:52:42;;;;;;;8.03;3.27;;;4.90;99.90;;;;;;5093813;28;20431;-57
2021/12/09 01:55:12;;;;;;;8.67;3.00;;;4.90;99.90;;;;;;5093393;28;20795;-58
2021/12/09 01:57:40;;;;;;;4.20;3.23;;;4.90;99.90;;;;;;5093687;28;20444;-58
2021/12/09 02:00:09;;;;;;;2.63;2.43;;;4.90;99.90;;;;;;5093633;28;20464;-58
2021/12/09 02:02:36;;;;;;;4.07;2.73;;;4.80;99.90;;;;;;5093605;28;20458;-57
2021/12/09 02:05:03;;;;;;;3.30;3.00;;;4.80;99.90;;;;;;5093679;28;20450;-57
2021/12/09 02:07:32;;;;;;;3.63;2.50;;;4.80;99.90;;;;;;5093630;28;20447;-57
2021/12/09 02:09:59;;;;;;;4.23;3.70;;;4.80;99.90;;;;;;5093213;28;20478;-58
2021/12/09 02:12:26;;;;;;;5.63;2.90;;;4.80;99.90;;;;;;5093638;28;20446;-58
2021/12/09 02:14:54;;;;;;;7.17;3.67;;;4.70;99.90;;;;;;5093508;28;20790;-58
2021/12/09 02:17:21;;;;;;;3.57;2.83;;;4.90;99.90;;;;;;5093422;28;20455;-57
2021/12/09 02:19:48;;;;;;;4.67;3.10;;;4.90;99.90;;;;;;5093004;28;20850;-57
2021/12/09 02:22:17;;;;;;;4.10;3.30;;;4.80;99.90;;;;;;5093093;28;20450;-57
2021/12/09 02:24:44;;;;;;;4.80;3.23;;;4.80;99.90;;;;;;5093273;28;20511;-57
2021/12/09 02:27:11;;;;;;;4.17;2.93;;;4.80;99.90;;;;;;5093029;28;20551;-58
2021/12/09 02:29:40;;;;;;;6.10;3.83;;;5.00;99.90;;;;;;5093209;28;20470;-58
2021/12/09 02:32:08;;;;;;;4.13;3.60;;;5.00;99.90;;;;;;5092940;28;20498;-58
2021/12/09 02:34:36;;;;;;;7.07;3.80;;;5.10;99.90;;;;;;5093166;28;20467;-57
2021/12/09 02:37:03;;;;;;;4.00;3.60;;;5.10;99.90;;;;;;5093195;28;20451;-57
2021/12/09 02:39:32;;;;;;;5.80;3.70;;;5.10;99.90;;;;;;5092811;28;20472;-58
2021/12/09 02:41:59;;;;;;;8.17;4.67;;;5.10;99.90;;;;;;5093206;28;20478;-58
2021/12/09 02:44:27;;;;;;;8.77;4.07;;;5.00;99.90;;;;;;5095839;28;21050;-57
2021/12/09 02:46:56;;;;;;;7.80;4.97;;;4.80;99.90;;;;;;5097527;28;20451;-58
2021/12/09 02:49:27;;;;;;;5.50;4.60;;;4.80;99.90;;;;;;5096386;28;20486;-57
2021/12/09 02:51:56;;;;;;;8.27;4.67;;;4.90;99.90;;;;;;5096677;28;20501;-57
2021/12/09 02:54:24;;;;;;;11.53;5.27;;;5.00;99.90;;;;;;5096642;28;20435;-57
2021/12/09 02:56:56;;;;;;;13.30;5.10;;;4.90;99.90;;;;;;5097335;28;20508;-57
2021/12/09 02:59:23;;;;;;;7.57;4.40;;;4.70;99.90;;;;;;5096817;28;20485;-57
2021/12/09 03:01:57;;;;;;;9.30;5.60;;;4.70;99.90;;;;;;5096481;28;20572;-57
2021/12/09 03:04:26;;;;;;;15.07;5.90;;;4.70;99.90;;;;;;5096703;28;20833;-57
2021/12/09 03:06:54;;;;;;;7.63;4.23;;;4.80;99.90;;;;;;5096710;28;20462;-58
2021/12/09 03:09:22;;;;;;;6.27;4.53;;;4.70;99.90;;;;;;5096215;28;20554;-58
2021/12/09 03:11:55;;;;;;;7.73;5.03;;;4.70;99.90;;;;;;5096272;28;20447;-58
2021/12/09 03:14:24;;;;;;;9.40;4.60;;;4.70;99.90;;;;;;5096285;28;20427;-57
2021/12/09 03:16:52;;;;;;;8.50;5.07;;;4.80;99.90;;;;;;5096156;28;20496;-57
2021/12/09 03:19:20;;;;;;;8.73;5.10;;;4.70;99.90;;;;;;5096028;28;20841;-58
2021/12/09 03:21:48;;;;;;;4.70;4.30;;;4.80;99.90;;;;;;5096443;28;20504;-57
2021/12/09 03:24:17;;;;;;;5.30;4.77;;;4.80;99.90;;;;;;5095968;28;20503;-58
2021/12/09 03:26:48;;;;;;;4.13;3.70;;;4.70;99.90;;;;;;5095877;28;20451;-58
2021/12/09 03:29:17;;;;;;;8.97;4.30;;;4.80;99.90;;;;;;5095923;28;20443;-58
2021/12/09 03:31:48;;;;;;;12.60;6.43;;;4.70;99.90;;;;;;5095900;28;20439;-57
2021/12/09 03:34:17;;;;;;;10.33;4.53;;;4.70;99.90;;;;;;5096159;28;20420;-57
2021/12/09 03:36:45;;;;;;;9.40;4.30;;;4.60;99.90;;;;;;5096167;28;20887;-58
2021/12/09 03:39:17;;;;;;;12.67;5.80;;;4.70;99.90;;;;;;5095741;28;20499;-57
2021/12/09 03:41:46;;;;;;;4.63;4.17;;;4.60;99.90;;;;;;5096553;28;20857;-58
2021/12/09 03:44:13;;;;;;;7.83;4.90;;;4.80;99.90;;;;;;5095915;28;20475;-57
2021/12/09 03:46:40;;;;;;;9.93;4.50;;;4.80;99.90;;;;;;5095654;28;20451;-57
2021/12/09 03:49:09;;;;;;;9.00;4.53;;;4.80;99.90;;;;;;5095637;28;20549;-57
2021/12/09 03:51:37;;;;;;;6.33;4.60;;;4.70;99.90;;;;;;5095675;28;20424;-57
2021/12/09 03:54:06;;;;;;;5.83;4.33;;;4.80;99.90;;;;;;5095477;28;20995;-58
2021/12/09 03:56:34;;;;;;;8.00;5.90;;;4.70;99.90;;;;;;5095374;28;20459;-58
2021/12/09 03:59:01;;;;;;;6.27;4.40;;;4.70;99.90;;;;;;5096078;28;20428;-57
2021/12/09 04:01:28;;;;;;;14.23;4.83;;;4.70;99.90;;;;;;5095672;28;20471;-58
2021/12/09 04:03:55;;;;;;;9.73;4.60;;;4.70;99.90;;;;;;5095276;28;20475;-58
2021/12/09 04:06:24;;;;;;;8.43;4.43;;;4.70;99.90;;;;;;5095196;28;20451;-58
2021/12/09 04:08:51;;;;;;;8.53;4.90;;;4.70;99.90;;;;;;5095512;28;20450;-58
2021/12/09 04:11:19;;;;;;;5.43;4.93;;;4.70;99.90;;;;;;5095194;28;20468;-57
2021/12/09 04:13:46;;;;;;;7.33;5.13;;;4.80;99.90;;;;;;5095574;28;20436;-58
2021/12/09 04:16:13;;;;;;;9.07;4.80;;;4.80;99.90;;;;;;5094959;28;20930;-58
2021/12/09 04:18:42;;;;;;;7.50;4.20;;;4.80;99.90;;;;;;5094917;28;20443;-57
2021/12/09 04:21:09;;;;;;;5.30;4.80;;;4.80;99.90;;;;;;5094794;28;20516;-57
2021/12/09 04:23:38;;;;;;;8.07;5.33;;;4.90;99.90;;;;;;5094716;28;20475;-57
2021/12/09 04:26:06;;;;;;;7.50;5.83;;;4.80;99.90;;;;;;5095075;28;20443;-57
2021/12/09 04:28:33;;;;;;;8.47;4.57;;;4.70;99.90;;;;;;5095056;28;20452;-57
2021/12/09 04:31:00;;;;;;;6.13;4.70;;;4.70;99.90;;;;;;5094903;28;20562;-57
2021/12/09 04:33:27;;;;;;;10.20;5.40;;;4.70;99.90;;;;;;5094930;28;20462;-57
2021/12/09 04:35:54;;;;;;;7.50;5.60;;;4.70;99.90;;;;;;5095394;28;20467;-57
2021/12/09 04:38:21;;;;;;;4.53;4.13;;;4.80;99.90;;;;;;5094603;28;20428;-58
2021/12/09 04:40:50;;;;;;;4.67;4.10;;;4.60;99.90;;;;;;5094605;28;20460;-57
2021/12/09 04:43:17;;;;;;;10.13;4.90;;;4.50;99.90;;;;;;5094450;28;20428;-57
2021/12/09 04:45:44;;;;;;;5.50;4.90;;;4.50;99.90;;;;;;5094409;28;20470;-57
2021/12/09 04:48:11;;;;;;;14.10;4.53;;;4.60;99.90;;;;;;5094648;28;20452;-57
2021/12/09 04:50:41;;;;;;;10.07;4.20;;;4.60;99.90;;;;;;5094140;28;20498;-57
2021/12/09 04:53:08;;;;;;;9.53;4.60;;;4.60;99.90;;;;;;5095633;28;20792;-57
2021/12/09 04:55:36;;;;;;;8.30;4.10;;;4.60;99.90;;;;;;5094320;28;20496;-58
2021/12/09 04:58:07;;;;;;;11.50;4.10;;;4.60;99.90;;;;;;5094485;28;20501;-58
2021/12/09 05:00:38;;;;;;;6.70;3.70;;;4.70;99.90;;;;;;5094163;28;21000;-57
2021/12/09 05:03:08;;;;;;;12.53;4.93;;;4.70;99.90;;;;;;5094136;28;20902;-57
2021/12/09 05:05:38;;;;;;;5.37;3.90;;;4.60;99.90;;;;;;5094254;28;20471;-57
2021/12/09 05:08:08;;;;;;;10.50;4.83;;;4.60;99.90;;;;;;5094208;28;20427;-59
2021/12/09 05:10:50;;;;;;;6.73;3.50;;;4.60;99.90;;;;;;5093807;28;20999;-58
2021/12/09 05:13:19;;;;;;;6.47;4.00;;;4.70;99.90;;;;;;5093906;28;20436;-57
2021/12/09 05:15:48;;;;;;;8.20;4.00;;;4.80;99.90;;;;;;5095013;28;20443;-58
2021/12/09 05:18:16;;;;;;;4.30;3.90;;;4.80;99.90;;;;;;5094172;28;20818;-57
2021/12/09 05:20:44;;;;;;;6.33;3.90;;;4.80;99.90;;;;;;5094300;28;20460;-57
2021/12/09 05:23:11;;;;;;;7.80;4.23;;;4.90;99.90;;;;;;5094750;28;20922;-57
2021/12/09 05:25:38;;;;;;;9.63;3.40;;;4.90;99.90;;;;;;5093534;28;20839;-57
2021/12/09 05:28:07;;;;;;;3.73;3.43;;;5.00;99.90;;;;;;5094057;28;20438;-58
2021/12/09 05:32:07;;;;;;;6.27;4.50;;;5.00;99.90;;;;;;5093560;28;20471;-57
2021/12/09 05:33:27;;;;;;;4.93;3.60;;;5.20;99.90;;;;;;5093485;28;20546;-58
2021/12/09 05:35:55;;;;;;;8.30;3.90;;;5.20;99.90;;;;;;5093582;28;20439;-58
2021/12/09 05:38:23;;;;;;;3.90;3.50;;;5.20;99.90;;;;;;5093528;28;20475;-58
2021/12/09 05:40:50;;;;;;;5.77;3.60;;;5.10;99.90;;;;;;5094036;28;20558;-58
2021/12/09 05:43:18;;;;;;;6.83;3.70;;;5.10;99.90;;;;;;5093453;28;20424;-58
2021/12/09 05:45:49;;;;;;;5.70;3.57;;;4.90;99.90;;;;;;5093624;28;20482;-58
2021/12/09 05:48:16;;;;;;;5.30;3.80;;;4.90;99.90;;;;;;5093436;28;20537;-58
2021/12/09 05:50:44;;;;;;;4.97;3.87;;;4.90;99.90;;;;;;5093072;28;20475;-57
2021/12/09 05:53:12;;;;;;;6.90;3.80;;;5.00;99.90;;;;;;5093366;28;20447;-58
2021/12/09 05:55:43;;;;;;;4.40;3.10;;;4.90;99.90;;;;;;5093481;28;20443;-58
2021/12/09 05:58:11;;;;;;;6.17;3.90;;;4.90;99.90;;;;;;5093283;28;20431;-57
2021/12/09 06:00:38;;;;;;;8.97;3.53;;;4.90;99.90;;;;;;5093337;28;20467;-58
2021/12/09 06:03:07;;;;;;;6.83;3.10;;;5.00;99.90;;;;;;5093207;28;20546;-58
2021/12/09 06:05:35;;;;;;;3.47;3.03;;;4.90;99.90;;;;;;5092909;28;20483;-57
2021/12/09 06:08:02;;;;;;;3.73;3.40;;;4.80;99.90;;;;;;5093402;28;20542;-57
2021/12/09 06:10:30;;;;;;;5.40;3.70;;;4.80;99.90;;;;;;5093041;28;20556;-57
2021/12/09 06:12:58;;;;;;;5.23;4.43;;;4.90;99.90;;;;;;5093178;28;20497;-58
2021/12/09 06:15:25;;;;;;;5.60;3.40;;;4.90;99.90;;;;;;5093035;28;20536;-57
2021/12/09 06:17:52;;;;;;;8.70;4.43;;;4.80;99.90;;;;;;5093643;28;20843;-57
2021/12/09 06:20:21;;;;;;;8.50;4.60;;;4.80;99.90;;;;;;5097520;28;20813;-57
2021/12/09 06:22:48;;;;;;;5.53;4.20;;;5.00;99.90;;;;;;5097312;28;20531;-57
2021/12/09 06:25:18;;;;;;;4.20;2.80;;;4.90;99.90;;;;;;5096979;28;20820;-58
2021/12/09 06:27:46;;;;;;;5.40;4.90;;;4.90;99.90;;;;;;5097458;28;20459;-58
2021/12/09 06:30:14;;;;;;;4.53;3.13;;;4.80;99.90;;;;;;5097273;28;20908;-58
2021/12/09 06:32:41;;;;;;;5.00;3.17;;;4.70;99.90;;;;;;5097153;28;20451;-58
2021/12/09 06:35:10;;;;;;;8.13;3.33;;;4.70;99.90;;;;;;5097078;28;20442;-56
2021/12/09 06:37:43;;;;;;;5.90;3.00;;;4.80;99.90;;;;;;5097188;28;20538;-56
2021/12/09 06:40:13;;;;;;;4.50;3.43;;;4.90;99.90;;;;;;5096501;28;20489;-56
2021/12/09 06:42:41;;;;;;;5.17;3.63;;;5.00;99.90;;;;;;5096561;28;20504;-58
2021/12/09 06:45:09;;;;;;;4.83;4.00;;;5.00;99.90;;;;;;5096411;28;20478;-57
2021/12/09 06:47:36;;;;;;;5.10;3.60;;;5.10;99.90;;;;;;5096882;28;20946;-56
2021/12/09 06:50:09;;;;;;;4.77;3.13;;;5.10;99.90;;;;;;5096117;28;20463;-58
2021/12/09 06:52:38;;;;;;;6.63;3.40;;;5.00;99.90;;;;;;5096472;28;20488;-57
2021/12/09 06:55:05;;;;;;;5.53;3.17;;;5.00;99.90;;;;;;5096287;28;20478;-57
2021/12/09 06:57:33;;;;;;;5.50;3.17;;;5.00;99.90;;;;;;5096831;28;20446;-57
2021/12/09 07:00:00;;;;;;;6.43;3.37;;;5.00;99.90;;;;;;5096481;28;20577;-57
2021/12/09 07:02:27;;;;;;;7.00;3.63;;;5.00;99.90;;;;;;5096698;28;20451;-57
2021/12/09 07:04:58;;;;;;;4.70;2.90;;;4.80;99.90;;;;;;5096454;28;20901;-58
2021/12/09 07:07:26;;;;;;;8.70;3.50;;;4.80;99.90;;;;;;5096575;28;20450;-58
2021/12/09 07:09:54;;;;;;;3.93;3.63;;;4.70;99.90;;;;;;5096011;28;20996;-58
2021/12/09 07:12:21;;;;;;;5.43;3.27;;;4.70;99.90;;;;;;5096284;28;20519;-57
2021/12/09 07:14:49;;;;;;;9.30;3.27;;;4.80;99.90;;;;;;5095872;28;20440;-56
2021/12/09 07:17:16;;;;;;;4.20;2.30;;;4.80;99.90;;;;;;5096431;28;20845;-56
2021/12/09 07:19:43;;;;;;;4.07;3.23;;;5.00;99.90;;;;;;5095930;28;20470;-56
2021/12/09 07:22:11;;;;;;;3.57;3.20;;;4.90;99.90;;;;;;5096106;28;20538;-56
2021/12/09 07:24:38;;;;;;;3.63;3.30;;;4.90;99.90;;;;;;5095493;28;20475;-57
2021/12/09 07:27:06;;;;;;;3.30;3.00;;;5.00;99.90;;;;;;5096108;28;20805;-57
2021/12/09 07:29:34;;;;;;;4.30;3.27;;;4.90;99.90;;;;;;5094397;28;20498;-56
2021/12/09 07:32:01;;;;;;;5.53;3.03;;;5.00;99.90;;;;;;5095840;28;20443;-57
2021/12/09 07:34:28;;;;;;;5.10;3.43;;;5.00;99.90;;;;;;5095489;28;20450;-58
2021/12/09 07:36:57;;;;;;;4.50;3.53;;;5.00;99.90;;;;;;5095962;28;20809;-56
2021/12/09 07:39:24;;;;;;;3.50;3.20;;;5.10;99.90;;;;;;5095606;28;20542;-58
2021/12/09 07:41:51;;;;;;;5.57;4.23;;;5.20;99.90;;;;;;5095432;28;20498;-59
2021/12/09 07:44:20;;;;;;;3.90;3.50;;;5.10;99.90;;;;;;5096400;28;20539;-58
2021/12/09 07:46:48;;;;;;;5.90;3.80;;;5.00;99.90;;;;;;5095306;28;20922;-58
2021/12/09 07:49:15;;;;;;;4.90;4.13;;;5.00;99.90;;;;;;5095027;28;20490;-58
2021/12/09 07:51:43;;;;;;;5.00;3.40;;;5.00;99.90;;;;;;5095651;28;20530;-58
2021/12/09 07:54:10;;;;;;;5.97;3.90;;;4.90;99.90;;;;;;5095346;28;20449;-59
2021/12/09 07:56:37;;;;;;;5.80;3.70;;;4.90;99.90;;;;;;5095030;28;20443;-58
2021/12/09 07:59:05;;;;;;;7.33;4.43;;;5.00;99.90;;;;;;5095112;28;20546;-58
2021/12/09 08:01:33;;;;;;;4.60;3.70;;;5.00;99.90;;;;;;5095058;28;20463;-57
2021/12/09 08:04:01;;;;;;;4.30;3.80;;;5.10;99.90;;;;;;5095155;28;20535;-56
2021/12/09 08:06:28;;;;;;;4.10;3.07;;;5.00;99.90;;;;;;5095137;28;20570;-56
2021/12/09 08:08:55;;;;;;;4.70;3.00;;;5.00;99.90;;;;;;5094845;28;20451;-57
2021/12/09 08:11:23;;;;;;;5.60;3.07;;;5.00;99.90;;;;;;5094762;28;20928;-57
2021/12/09 08:13:50;;;;;;;7.53;3.80;;;5.00;99.90;;;;;;5095127;28;20447;-56
2021/12/09 08:16:18;;;;;;;7.20;3.33;;;5.00;99.90;;;;;;5095027;28;20791;-58
2021/12/09 08:18:55;;;;;;;6.50;3.50;;;4.90;99.90;;;;;;5094910;28;20448;-58
2021/12/09 08:21:23;;;;;;;4.93;3.50;;;4.90;99.90;;;;;;5094574;28;20478;-57
2021/12/09 08:23:51;;;;;;;3.93;3.00;;;5.00;99.90;;;;;;5094463;28;21005;-56
2021/12/09 08:26:19;;;;;;;3.47;3.17;;;4.90;99.90;;;;;;5094841;28;20562;-58
2021/12/09 08:28:46;;;;;;;3.20;2.90;;;5.00;99.90;;;;;;5094729;28;20475;-57
2021/12/09 08:31:13;;;;;;;5.27;3.93;;;4.90;99.90;;;;;;5094724;28;20487;-57
2021/12/09 08:33:40;;;;;;;6.47;3.57;;;5.00;99.90;;;;;;5094622;28;20453;-57
2021/12/09 08:36:09;;;;;;;7.83;3.80;;;5.00;99.90;;;;;;5094882;28;20465;-56
2021/12/09 08:38:37;;;;;;;3.93;3.50;;;5.10;99.90;;;;;;5094752;28;20448;-56
2021/12/09 08:41:04;;;;;;;3.70;3.40;;;5.20;99.90;;;;;;5094187;28;20478;-57
2021/12/09 08:43:31;;;;;;;9.00;4.63;;;5.10;99.90;;;;;;5094160;28;20430;-56
2021/12/09 08:45:59;;;;;;;5.63;4.20;;;5.20;99.90;;;;;;5094147;28;20483;-56
2021/12/09 08:48:27;;;;;;;4.10;3.47;;;5.30;99.90;;;;;;5094045;28;20471;-56
2021/12/09 08:50:55;;;;;;;4.10;3.77;;;5.30;99.90;;;;;;5093832;28;20479;-56
2021/12/09 08:53:26;;;;;;;4.23;3.77;;;5.30;99.90;;;;;;5093931;28;20916;-58
2021/12/09 08:55:54;;;;;;;6.10;4.00;;;5.10;99.90;;;;;;5094422;28;20446;-57
2021/12/09 08:58:23;;;;;;;4.40;4.00;;;5.20;99.90;;;;;;5094261;28;20504;-59
2021/12/09 09:00:53;;;;;;;3.43;2.90;;;5.20;99.90;;;;;;5093940;28;20473;-58
2021/12/09 09:03:21;;;;;;;4.50;4.10;;;5.30;99.90;;;;;;5093892;28;20476;-58
2021/12/09 09:05:48;;;;;;;11.30;6.00;;;5.30;99.90;;;;;;5093677;28;20981;-57
2021/12/09 09:08:15;;;;;;;8.23;4.53;;;5.40;99.90;;;;;;5094104;28;20857;-58
2021/12/09 09:10:46;;;;;;;9.53;5.63;;;5.40;99.90;;;;;;5093506;28;20474;-59
2021/12/09 09:13:14;;;;;;;5.23;4.23;;;5.70;99.90;;;;;;5093994;28;20460;-58
2021/12/09 09:15:48;;;;;;;4.23;3.40;;;5.70;99.90;;;;;;5093343;28;20953;-58
2021/12/09 09:18:15;;;;;;;6.33;4.10;;;5.60;99.90;;;;;;5093613;28;20430;-57
2021/12/09 09:20:42;;;;;;;4.63;3.80;;;5.70;99.90;;;;;;5093750;28;20478;-57
2021/12/09 09:23:12;;;;;;;4.53;3.90;;;5.60;99.90;;;;;;5093861;28;20538;-58
2021/12/09 09:25:40;;;;;;;9.57;4.00;;;5.40;99.90;;;;;;5093672;28;20489;-57
2021/12/09 09:28:10;;;;;;;10.50;3.77;;;5.50;99.90;;;;;;5093848;28;20546;-58
2021/12/09 09:30:40;;;;;;;12.77;4.23;;;5.70;99.90;;;;;;5093663;28;20468;-58
2021/12/09 09:33:09;;;;;;;7.20;4.93;;;5.70;99.90;;;;;;5093729;28;20444;-57
2021/12/09 09:35:38;;;;;;;4.13;3.83;;;5.70;99.90;;;;;;5093330;28;20943;-57
2021/12/09 09:38:06;;;;;;;3.90;3.47;;;5.60;99.90;;;;;;5093239;28;20949;-57
2021/12/09 09:40:40;;;;;;;8.57;4.30;;;5.60;99.90;;;;;;5093098;28;20910;-57
2021/12/09 09:43:27;;;;;;;5.50;4.23;;;5.70;99.90;;;;;;5093092;28;20523;-57
2021/12/09 09:45:55;;;;;;;4.90;3.37;;;5.80;99.90;;;;;;5093209;28;20506;-58
2021/12/09 09:48:23;;;;;;;4.60;4.00;;;6.00;99.90;;;;;;5093150;28;20496;-58
2021/12/09 09:50:50;;;;;;;3.70;3.40;;;6.20;99.90;;;;;;5092874;28;20505;-58
2021/12/09 09:53:18;;;;;;;4.30;3.90;;;6.00;99.90;;;;;;5093506;28;20482;-57
2021/12/09 09:55:47;;;;;;;7.50;4.00;;;5.90;99.90;;;;;;5092826;28;20470;-57
2021/12/09 09:58:16;;;;;;;7.67;4.87;;;5.90;99.90;;;;;;5093319;28;20461;-58
2021/12/09 10:00:44;;;;;;;5.17;4.57;;;5.90;99.90;;;;;;5092937;28;20551;-58
2021/12/09 10:03:16;;;;;;;4.43;3.97;;;5.90;99.90;;;;;;5092929;28;20542;-58
2021/12/09 10:05:46;;;;;;;7.60;3.90;;;6.20;99.90;;;;;;5093192;28;20478;-58
2021/12/09 10:08:15;;;;;;;4.80;3.70;;;6.00;99.90;;;;;;5092880;28;20454;-58
2021/12/09 10:10:44;;;;;;;4.47;4.07;;;6.00;99.90;;;;;;5092634;28;20467;-58
2021/12/09 10:13:14;;;;;;;4.50;4.10;;;6.00;99.90;;;;;;5093132;28;20461;-57
2021/12/09 10:15:48;;;;;;;4.90;4.00;;;6.30;99.90;;;;;;5092901;28;20542;-57
2021/12/09 10:18:33;;;;;;;4.50;4.00;;;6.30;99.90;;;;;;5093128;28;20478;-57
2021/12/09 10:21:01;;;;;;;8.00;4.40;;;6.30;99.90;;;;;;5092660;28;20460;-58
2021/12/09 10:23:35;;;;;;;6.53;3.93;;;6.20;99.90;;;;;;5093103;28;20546;-58
2021/12/09 10:26:21;;;;;;;4.53;4.13;;;6.30;99.90;;;;;;5092659;28;20468;-58
2021/12/09 10:28:52;;;;;;;4.60;4.00;;;6.30;99.90;;;;;;5092625;28;20439;-57
2021/12/09 10:31:26;;;;;;;4.10;3.80;;;6.20;99.90;;;;;;5093116;28;20470;-57
2021/12/09 10:34:15;;;;;;;5.00;3.30;;;6.50;99.90;;;;;;5092555;28;20432;-57
2021/12/09 10:36:55;;;;;;;4.57;3.33;;;6.10;99.90;;;;;;5093619;28;20854;-58
2021/12/09 10:39:28;;;;;;;4.13;3.67;;;6.10;99.90;;;;;;5092825;28;20427;-58
2021/12/09 10:41:57;;;;;;;5.83;3.53;;;6.10;99.90;;;;;;5093005;28;20451;-58
2021/12/09 10:44:52;;;;;;;3.87;3.57;;;6.00;99.90;;;;;;5093560;28;20486;-58
2021/12/09 10:47:35;;;;;;;5.03;3.20;;;6.10;99.90;;;;;;5092966;28;20505;-58
2021/12/09 10:50:16;;;;;;;7.63;3.80;;;6.30;99.90;;;;;;5092374;28;20515;-57
2021/12/09 10:52:49;;;;;;;6.00;5.40;;;6.50;99.90;;;;;;5092814;28;20767;-58
2021/12/09 10:55:23;;;;;;;5.33;4.83;;;6.40;99.90;;;;;;5092841;28;20519;-58
2021/12/09 10:58:01;;;;;;;4.80;3.30;;;6.50;99.90;;;;;;5092485;28;20517;-58
2021/12/09 11:00:34;;;;;;;5.43;3.53;;;6.50;99.90;;;;;;5092688;28;20824;-58
2021/12/09 11:03:15;;;;;;;4.10;3.80;;;6.40;99.90;;;;;;5092712;28;20427;-58
2021/12/09 11:05:46;;;;;;;4.00;3.60;;;6.50;99.90;;;;;;5095631;28;20969;-58
2021/12/09 11:08:30;;;;;;;6.17;3.60;;;6.60;99.90;;;;;;5096098;28;20526;-58
2021/12/09 11:11:01;;;;;;;3.63;3.30;;;6.60;99.90;;;;;;5095261;28;20562;-58
2021/12/09 11:13:41;;;;;;;12.70;4.67;;;6.70;99.90;;;;;;5095910;28;20518;-58
2021/12/09 11:16:09;;;;;;;5.63;3.00;;;6.50;99.90;;;;;;5095788;28;20438;-58
2021/12/09 11:18:42;;;;;;;5.27;4.77;;;6.40;99.90;;;;;;5096038;28;20447;-58
2021/12/09 11:21:20;;;;;;;4.00;3.47;;;6.50;99.90;;;;;;5096038;28;20463;-57
2021/12/09 11:23:52;;;;;;;3.97;3.67;;;6.50;99.90;;;;;;5095637;28;20503;-57
2021/12/09 11:26:55;;;;;;;5.93;3.73;;;6.60;99.90;;;;;;5095694;28;20774;-57
2021/12/09 11:29:28;;;;;;;3.13;2.80;;;6.60;99.90;;;;;;5095678;28;20449;-58
2021/12/09 11:32:05;;;;;;;3.40;3.10;;;6.70;99.90;;;;;;5096513;28;20424;-58
2021/12/09 11:34:40;;;;;;;5.50;3.17;;;6.80;99.90;;;;;;5095889;28;20757;-58
2021/12/09 11:37:22;;;;;;;3.53;3.23;;;6.90;99.90;;;;;;5095556;28;20419;-57
2021/12/09 11:39:51;;;;;;;3.20;2.90;;;6.90;99.90;;;;;;5095551;28;20471;-58
2021/12/09 11:42:25;;;;;;;3.60;3.30;;;7.10;99.90;;;;;;5095584;28;20785;-58
2021/12/09 11:44:52;;;;;;;4.10;3.70;;;7.20;99.90;;;;;;5095871;28;20432;-58
2021/12/09 11:47:19;;;;;;;5.63;3.20;;;7.10;99.90;;;;;;5095395;28;20570;-58
2021/12/09 11:49:51;;;;;;;4.87;3.73;;;7.10;99.90;;;;;;5094979;28;20475;-58
2021/12/09 11:52:20;;;;;;;4.50;3.40;;;7.10;99.90;;;;;;5095053;28;20436;-58
2021/12/09 11:54:56;;;;;;;3.37;3.07;;;7.30;99.90;;;;;;5095015;28;20922;-57
2021/12/09 11:57:35;;;;;;;2.97;2.77;;;7.20;99.90;;;;;;5095351;28;20427;-58
2021/12/09 12:11:56;;;;;;;3.63;2.70;;;7.80;99.90;;;;;;5095142;28;20530;-58
2021/12/09 12:14:36;;;;;;;3.87;3.27;;;7.80;99.90;;;;;;5094615;28;20451;-58
2021/12/09 12:17:18;;;;;;;7.33;3.47;;;7.70;99.90;;;;;;5094196;28;20423;-59
2021/12/09 12:20:26;;;;;;;4.60;3.47;;;7.60;99.90;;;;;;5094462;28;20471;-58
2021/12/09 12:28:46;;;;;;;4.40;3.13;;;7.80;99.90;;;;;;5094781;28;20464;-57
2021/12/09 12:32:00;;;;;;;3.40;3.17;;;7.70;99.90;;;;;;5094776;28;20516;-58
2021/12/09 12:35:05;;;;;;;5.93;3.00;;;7.60;99.90;;;;;;5094353;28;20517;-56
2021/12/09 12:37:48;;;;;;;3.30;3.00;;;7.70;99.90;;;;;;5094330;28;20889;-57
2021/12/09 12:40:19;;;;;;;3.97;3.00;;;7.70;99.90;;;;;;5094362;28;20459;-57
2021/12/09 12:42:52;;;;;;;4.50;2.83;;;7.60;99.90;;;;;;5094767;28;20550;-58
2021/12/09 12:45:51;;;;;;;10.20;3.10;;;7.80;99.90;;;;;;5094095;28;20481;-58
2021/12/09 12:48:55;;;;;;;5.17;3.23;;;7.90;99.90;;;;;;5089770;28;20454;-57
2021/12/09 12:51:27;;;;;;;4.03;2.47;;;7.90;99.90;;;;;;5093990;28;20472;-57
2021/12/09 12:53:56;;;;;;;6.17;3.27;;;7.60;99.90;;;;;;5094274;28;20428;-57
2021/12/09 12:56:27;;;;;;;3.77;2.60;;;7.60;99.90;;;;;;5093734;28;21004;-57
2021/12/09 12:59:20;;;;;;;3.13;2.70;;;7.40;99.90;;;;;;5094343;28;20428;-59
2021/12/09 13:02:16;;;;;;;7.10;2.70;;;7.60;99.90;;;;;;5093938;28;20462;-58
2021/12/09 13:04:54;;;;;;;6.47;2.77;;;7.90;99.90;;;;;;5094303;28;20479;-59
2021/12/09 13:07:31;;;;;;;7.87;3.60;;;8.20;99.90;;;;;;5093981;28;20554;-57
2021/12/09 13:10:24;;;;;;;6.40;2.63;;;8.00;99.90;;;;;;5093687;28;20468;-58
2021/12/09 13:13:07;;;;;;;9.27;3.37;;;7.90;99.90;;;;;;5094057;28;20824;-56
2021/12/09 13:15:44;;;;;;;7.90;2.90;;;7.60;99.90;;;;;;5093514;28;20477;-57
2021/12/09 13:18:46;;;;;;;4.00;2.63;;;7.50;99.90;;;;;;5094225;28;20427;-58
2021/12/09 13:21:54;;;;;;;3.53;2.73;;;7.60;99.90;;;;;;5093523;28;20826;-58
2021/12/09 13:24:39;;;;;;;10.10;3.43;;;7.60;99.90;;;;;;5093809;28;20424;-58
2021/12/09 13:30:41;;;;;;;14.30;4.90;;;7.70;99.90;;;;;;5089734;28;20999;-59
2021/12/09 13:33:26;;;;;;;8.33;3.97;;;7.70;99.90;;;;;;5093382;28;20530;-57
2021/12/09 13:47:17;;;;;;;7.30;3.77;;;7.30;99.90;;;;;;5093411;28;20462;-58